Time;durP1;ratioP1;P1;durP2;ratioP2;P2;SDS_P1;SDS_P2;PMS_P1;PMS_P2;Temp;Humidity;BMP_temperature;BMP_pressure;BME280_temperature;BME280_humidity;BME280_pressure;Samples;Min_cycle;Max_cycle;Signal;HPM_P1;HPM_P2
2023/08/13 00:03:35;;;;;;;;;;;23.70;56.80;;;;;;8376988;28;19924;-76
2023/08/13 00:07:36;;;;;;;;;;;23.70;57.70;;;;;;8376392;28;19909;-78
2023/08/13 00:11:36;;;;;;;;;;;23.70;58.70;;;;;;8358457;28;19921;-79
2023/08/13 00:15:37;;;;;;;;;;;23.70;58.40;;;;;;8357955;28;19939;-80
2023/08/13 00:19:38;;;;;;;;;;;23.70;57.80;;;;;;8376483;28;20358;-79
2023/08/13 00:23:38;;;;;;;;;;;23.80;57.90;;;;;;8375533;28;20316;-79
2023/08/13 00:27:39;;;;;;;;;;;23.80;57.60;;;;;;8357841;28;19917;-78
2023/08/13 00:31:39;;;;;;;;;;;23.80;56.10;;;;;;8375490;28;20301;-78
2023/08/13 00:35:40;;;;;;;;;;;23.80;55.80;;;;;;8357754;28;19917;-76
2023/08/13 00:39:40;;;;;;;;;;;23.80;57.90;;;;;;8344479;28;20405;-80
2023/08/13 00:43:41;;;;;;;;;;;23.70;58.30;;;;;;8363566;28;20271;-81
2023/08/13 00:47:42;;;;;;;;;;;23.70;58.30;;;;;;8398018;28;19912;-78
2023/08/13 00:51:43;;;;;;;;;;;23.70;58.10;;;;;;8398611;28;19909;-79
2023/08/13 00:55:44;;;;;;;;;;;23.70;58.20;;;;;;8398488;28;19923;-83
2023/08/13 00:59:44;;;;;;;;;;;23.80;58.40;;;;;;8398694;28;19912;-77
2023/08/13 01:03:45;;;;;;;;;;;23.70;56.90;;;;;;8400729;28;19920;-81
2023/08/13 01:07:48;;;;;;;;;;;23.70;58.20;;;;;;8375554;28;19940;-81
2023/08/13 01:11:58;;;;;;;;;;;23.70;58.40;;;;;;8368657;28;19925;-81
2023/08/13 01:15:59;;;;;;;;;;;23.70;58.60;;;;;;8370116;28;19912;-80
2023/08/13 01:20:03;;;;;;;;;;;23.70;58.60;;;;;;8386890;28;20015;-80
2023/08/13 01:24:04;;;;;;;;;;;23.60;58.60;;;;;;8388130;28;19992;-80
2023/08/13 01:28:08;;;;;;;;;;;23.60;58.60;;;;;;8406868;28;19919;-80
2023/08/13 01:32:12;;;;;;;;;;;23.50;58.60;;;;;;8435950;28;19901;-80
2023/08/13 01:36:16;;;;;;;;;;;23.50;58.60;;;;;;8436361;28;19992;-80
2023/08/13 01:40:16;;;;;;;;;;;23.50;58.70;;;;;;8418594;28;19960;-80
2023/08/13 01:44:17;;;;;;;;;;;23.50;58.70;;;;;;8408644;28;19939;-80
2023/08/13 01:48:17;;;;;;;;;;;23.50;58.70;;;;;;8378121;28;19962;-80
2023/08/13 01:52:18;;;;;;;;;;;23.50;58.70;;;;;;8394740;28;19909;-80
2023/08/13 01:56:18;;;;;;;;;;;23.50;58.70;;;;;;8393948;28;20369;-80
2023/08/13 02:00:19;;;;;;;;;;;23.50;58.70;;;;;;8376198;28;20007;-80
2023/08/13 02:04:20;;;;;;;;;;;23.50;58.70;;;;;;8393792;28;19915;-80
2023/08/13 02:08:20;;;;;;;;;;;23.40;58.70;;;;;;8381703;28;20351;-80
2023/08/13 02:12:21;;;;;;;;;;;23.40;58.70;;;;;;8360525;28;20328;-80
2023/08/13 02:16:21;;;;;;;;;;;23.50;58.70;;;;;;8349688;28;19956;-80
2023/08/13 02:20:22;;;;;;;;;;;23.40;58.70;;;;;;8367668;28;20397;-80
2023/08/13 02:24:23;;;;;;;;;;;23.40;58.70;;;;;;8366644;28;20345;-80
2023/08/13 02:28:23;;;;;;;;;;;23.40;58.70;;;;;;8366543;28;20367;-80
2023/08/13 02:32:24;;;;;;;;;;;23.40;58.70;;;;;;8367510;28;20278;-80
2023/08/13 02:36:25;;;;;;;;;;;23.40;58.60;;;;;;8349597;28;19928;-80
2023/08/13 02:40:25;;;;;;;;;;;23.40;58.70;;;;;;8349046;28;19924;-80
2023/08/13 02:44:26;;;;;;;;;;;23.40;58.70;;;;;;8332470;28;19912;-80
2023/08/13 02:48:27;;;;;;;;;;;23.40;58.70;;;;;;8348606;28;19912;-80
2023/08/13 02:52:27;;;;;;;;;;;23.40;58.70;;;;;;8364821;28;19967;-80
2023/08/13 02:56:28;;;;;;;;;;;23.40;58.70;;;;;;8365383;28;19917;-80
2023/08/13 03:00:28;;;;;;;;;;;23.40;58.70;;;;;;8365890;28;19948;-80
2023/08/13 03:04:29;;;;;;;;;;;23.40;58.70;;;;;;8331996;28;20444;-80
2023/08/13 03:08:29;;;;;;;;;;;23.40;58.70;;;;;;8365615;28;20012;-80
2023/08/13 03:12:30;;;;;;;;;;;23.40;58.70;;;;;;8388751;28;20378;-80
2023/08/13 03:16:30;;;;;;;;;;;23.40;58.70;;;;;;8379578;28;19962;-80
2023/08/13 03:20:31;;;;;;;;;;;23.40;58.60;;;;;;8380106;28;20460;-80
2023/08/13 03:24:31;;;;;;;;;;;23.40;58.70;;;;;;8379864;28;19916;-80
2023/08/13 03:28:32;;;;;;;;;;;23.40;58.70;;;;;;8380121;28;19916;-80
2023/08/13 03:32:32;;;;;;;;;;;23.30;58.60;;;;;;8397897;28;19970;-80
2023/08/13 03:36:33;;;;;;;;;;;23.30;58.60;;;;;;8346548;28;19916;-80
2023/08/13 03:40:36;;;;;;;;;;;23.30;58.60;;;;;;8398514;28;19978;-80
2023/08/13 03:44:37;;;;;;;;;;;23.30;58.60;;;;;;8397709;28;19908;-80
2023/08/13 03:48:37;;;;;;;;;;;23.30;58.60;;;;;;8379662;28;19938;-80
2023/08/13 03:52:38;;;;;;;;;;;23.30;58.60;;;;;;8379596;28;20027;-80
2023/08/13 03:56:38;;;;;;;;;;;23.30;58.60;;;;;;8378955;28;19982;-79
2023/08/13 04:00:39;;;;;;;;;;;23.30;58.60;;;;;;8379032;28;19913;-80
2023/08/13 04:04:39;;;;;;;;;;;23.30;58.60;;;;;;8362327;28;20329;-80
2023/08/13 04:08:40;;;;;;;;;;;23.30;58.60;;;;;;8362736;28;19936;-80
2023/08/13 04:12:40;;;;;;;;;;;23.30;58.60;;;;;;8396607;28;19954;-80
2023/08/13 04:16:41;;;;;;;;;;;23.30;58.60;;;;;;8378516;28;19958;-80
2023/08/13 04:20:42;;;;;;;;;;;23.30;58.60;;;;;;8396495;28;19909;-80
2023/08/13 04:24:47;;;;;;;;;;;23.30;58.60;;;;;;8377980;28;20286;-80
2023/08/13 04:28:47;;;;;;;;;;;23.30;58.60;;;;;;8395436;28;20282;-80
2023/08/13 04:32:52;;;;;;;;;;;23.30;58.60;;;;;;8378340;28;19935;-80
2023/08/13 04:36:53;;;;;;;;;;;23.30;58.60;;;;;;8395753;28;19928;-80
2023/08/13 04:40:53;;;;;;;;;;;23.30;58.50;;;;;;8377834;28;20429;-80
2023/08/13 04:44:54;;;;;;;;;;;23.30;58.60;;;;;;8395757;28;19962;-80
2023/08/13 04:48:54;;;;;;;;;;;23.30;58.50;;;;;;8377662;28;20011;-80
2023/08/13 04:52:55;;;;;;;;;;;23.30;58.50;;;;;;8361116;28;19912;-80
2023/08/13 04:56:55;;;;;;;;;;;23.30;58.60;;;;;;8376686;28;20378;-80
2023/08/13 05:00:56;;;;;;;;;;;23.30;58.60;;;;;;8377482;28;19908;-80
2023/08/13 05:04:56;;;;;;;;;;;23.30;58.50;;;;;;8395313;28;19966;-80
2023/08/13 05:08:57;;;;;;;;;;;23.30;58.50;;;;;;8394984;28;19938;-80
2023/08/13 05:12:57;;;;;;;;;;;23.30;58.50;;;;;;8394683;28;19932;-80
2023/08/13 05:16:58;;;;;;;;;;;23.30;58.50;;;;;;8395145;28;19924;-80
2023/08/13 05:21:00;;;;;;;;;;;23.30;58.50;;;;;;8405219;28;20054;-80
2023/08/13 05:25:01;;;;;;;;;;;23.30;58.50;;;;;;8376463;28;19944;-80
2023/08/13 05:29:03;;;;;;;;;;;23.30;58.50;;;;;;8394411;28;20122;-80
2023/08/13 05:33:03;;;;;;;;;;;23.30;58.50;;;;;;8395022;28;19909;-80
2023/08/13 05:37:05;;;;;;;;;;;23.30;58.50;;;;;;8394563;28;20439;-80
2023/08/13 05:41:06;;;;;;;;;;;23.30;58.50;;;;;;8393950;28;19939;-80
2023/08/13 05:45:06;;;;;;;;;;;23.30;58.50;;;;;;8394473;28;19916;-80
2023/08/13 05:49:07;;;;;;;;;;;23.30;58.50;;;;;;8394415;28;19920;-80
2023/08/13 05:53:07;;;;;;;;;;;23.30;58.40;;;;;;8376194;28;19952;-80
2023/08/13 05:57:08;;;;;;;;;;;23.30;58.50;;;;;;8375671;28;20281;-80
2023/08/13 06:01:09;;;;;;;;;;;23.30;58.50;;;;;;8359413;28;19919;-80
2023/08/13 06:05:09;;;;;;;;;;;23.20;58.40;;;;;;8376732;28;19919;-80
2023/08/13 06:09:10;;;;;;;;;;;23.20;58.40;;;;;;8393996;28;19915;-80
2023/08/13 06:13:10;;;;;;;;;;;23.30;58.50;;;;;;8359480;28;20424;-80
2023/08/13 06:17:11;;;;;;;;;;;23.30;58.50;;;;;;8360412;28;19941;-80
2023/08/13 06:21:11;;;;;;;;;;;23.20;58.40;;;;;;8361323;28;19959;-80
2023/08/13 06:25:12;;;;;;;;;;;23.30;58.50;;;;;;8359705;28;19913;-80
2023/08/13 06:29:12;;;;;;;;;;;23.30;58.40;;;;;;8360555;28;19917;-80
2023/08/13 06:33:13;;;;;;;;;;;23.30;58.50;;;;;;8342936;28;19990;-80
2023/08/13 06:37:14;;;;;;;;;;;23.20;58.40;;;;;;8358950;28;19970;-80
2023/08/13 06:41:14;;;;;;;;;;;23.20;58.40;;;;;;8342317;28;19917;-80
2023/08/13 06:45:15;;;;;;;;;;;23.20;58.40;;;;;;8360313;28;19913;-80
2023/08/13 06:49:15;;;;;;;;;;;23.30;58.40;;;;;;8360046;28;19912;-80
2023/08/13 06:53:16;;;;;;;;;;;23.20;58.40;;;;;;8363555;28;19917;-80
2023/08/13 06:57:16;;;;;;;;;;;23.20;58.40;;;;;;8364764;28;20012;-80
2023/08/13 07:01:17;;;;;;;;;;;23.20;58.30;;;;;;8364453;28;19920;-80
2023/08/13 07:05:18;;;;;;;;;;;23.20;58.30;;;;;;8364722;28;19913;-80
2023/08/13 07:09:18;;;;;;;;;;;23.20;58.30;;;;;;8347974;28;19948;-80
2023/08/13 07:13:19;;;;;;;;;;;23.20;58.30;;;;;;8361064;28;19928;-80
2023/08/13 07:17:19;;;;;;;;;;;23.20;58.30;;;;;;8398516;28;19921;-80
2023/08/13 07:21:20;;;;;;;;;;;23.30;58.30;;;;;;8398175;28;20330;-80
2023/08/13 07:25:20;;;;;;;;;;;23.20;58.30;;;;;;8398602;28;19916;-81
2023/08/13 07:29:21;;;;;;;;;;;23.20;58.30;;;;;;8363613;28;19939;-80
2023/08/13 07:33:22;;;;;;;;;;;23.20;58.30;;;;;;8363428;28;19919;-80
2023/08/13 07:37:22;;;;;;;;;;;23.30;58.30;;;;;;8397835;28;19932;-80
2023/08/13 07:41:23;;;;;;;;;;;23.20;58.30;;;;;;8379911;28;19920;-80
2023/08/13 07:45:23;;;;;;;;;;;23.20;58.80;;;;;;8397715;28;19913;-80
2023/08/13 07:49:25;;;;;;;;;;;23.20;58.30;;;;;;8397674;28;20003;-80
2023/08/13 07:53:25;;;;;;;;;;;23.20;58.30;;;;;;8397661;28;19916;-80
2023/08/13 07:57:26;;;;;;;;;;;23.20;58.30;;;;;;8361991;28;20070;-80
2023/08/13 08:01:28;;;;;;;;;;;23.20;58.20;;;;;;8379206;28;19915;-80
2023/08/13 08:05:29;;;;;;;;;;;23.20;58.30;;;;;;8378471;28;20113;-80
2023/08/13 08:09:30;;;;;;;;;;;23.20;58.20;;;;;;8396841;28;19972;-80
2023/08/13 08:13:32;;;;;;;;;;;23.20;58.20;;;;;;8396503;28;20004;-80
2023/08/13 08:17:34;;;;;;;;;;;23.20;58.30;;;;;;8396560;28;19927;-80
2023/08/13 08:21:35;;;;;;;;;;;23.20;58.30;;;;;;8378784;28;20365;-80
2023/08/13 08:25:35;;;;;;;;;;;23.20;58.30;;;;;;8378366;28;20313;-80
2023/08/13 08:29:36;;;;;;;;;;;23.20;58.30;;;;;;8396248;28;19912;-80
2023/08/13 08:33:36;;;;;;;;;;;23.20;58.30;;;;;;8378148;28;20011;-79
2023/08/13 08:37:37;;;;;;;;;;;23.20;58.20;;;;;;8395962;28;19923;-80
2023/08/13 08:41:39;;;;;;;;;;;23.20;58.20;;;;;;8377833;28;19966;-80
2023/08/13 08:45:40;;;;;;;;;;;23.20;58.20;;;;;;8396925;28;19948;-80
2023/08/13 08:49:41;;;;;;;;;;;23.20;58.20;;;;;;8398341;28;19912;-80
2023/08/13 08:53:42;;;;;;;;;;;23.20;58.20;;;;;;8396608;28;19908;-81
2023/08/13 08:57:43;;;;;;;;;;;23.20;58.20;;;;;;8361705;28;19987;-80
2023/08/13 09:01:43;;;;;;;;;;;23.20;58.20;;;;;;8379305;28;19947;-80
2023/08/13 09:05:44;;;;;;;;;;;23.20;58.20;;;;;;8401783;28;19913;-80
2023/08/13 09:09:48;;;;;;;;;;;23.20;58.20;;;;;;8403713;28;19924;-79
2023/08/13 09:13:49;;;;;;;;;;;23.20;58.20;;;;;;8402835;28;19912;-80
2023/08/13 09:17:50;;;;;;;;;;;23.20;58.20;;;;;;8415478;28;19923;-80
2023/08/13 09:21:55;;;;;;;;;;;23.20;58.20;;;;;;8409294;28;19948;-80
2023/08/13 09:25:57;;;;;;;;;;;23.20;58.20;;;;;;8408289;28;19917;-80
2023/08/13 09:29:59;;;;;;;;;;;23.20;58.20;;;;;;8434229;28;19897;-80
2023/08/13 09:34:00;;;;;;;;;;;23.20;58.20;;;;;;8436378;28;19912;-81
2023/08/13 09:38:00;;;;;;;;;;;23.20;58.20;;;;;;8419238;28;19908;-80
2023/08/13 09:42:03;;;;;;;;;;;23.20;58.20;;;;;;8393780;28;19916;-80
2023/08/13 09:46:06;;;;;;;;;;;23.20;58.10;;;;;;8395471;28;19913;-80
2023/08/13 09:50:07;;;;;;;;;;;23.20;58.10;;;;;;8377846;28;20313;-80
2023/08/13 09:54:11;;;;;;;;;;;23.20;58.10;;;;;;8394520;28;19909;-79
2023/08/13 09:58:14;;;;;;;;;;;23.20;58.10;;;;;;8394137;28;19952;-79
2023/08/13 10:02:14;;;;;;;;;;;23.20;58.60;;;;;;8394198;28;19912;-79
2023/08/13 10:06:15;;;;;;;;;;;23.20;58.10;;;;;;8394106;28;19912;-79
2023/08/13 10:10:16;;;;;;;;;;;23.20;58.10;;;;;;8394773;28;19917;-79
2023/08/13 10:14:17;;;;;;;;;;;23.20;58.10;;;;;;8394042;28;19916;-79
2023/08/13 10:18:18;;;;;;;;;;;23.20;58.60;;;;;;8376632;28;19921;-79
2023/08/13 10:22:37;;;;;;;;;;;23.20;58.00;;;;;;8394396;28;19954;-79
2023/08/13 10:26:45;;;;;;;;;;;23.20;58.00;;;;;;8395282;28;19908;-78
2023/08/13 10:30:46;;;;;;;;;;;23.30;58.90;;;;;;8383650;28;20291;-78
2023/08/13 10:34:54;;;;;;;;;;;23.40;60.30;;;;;;8382320;28;20118;-78
2023/08/13 10:38:55;;;;;;;;;;;23.50;60.90;;;;;;8382261;28;20007;-79
2023/08/13 10:42:56;;;;;;;;;;;23.60;61.00;;;;;;8400009;28;19962;-80
2023/08/13 10:46:57;;;;;;;;;;;23.70;60.80;;;;;;8399736;28;19958;-80
2023/08/13 10:50:58;;;;;;;;;;;23.70;61.00;;;;;;8398949;28;19908;-79
2023/08/13 10:55:00;;;;;;;;;;;23.70;61.70;;;;;;8381441;28;19920;-79
2023/08/13 10:59:00;;;;;;;;;;;23.70;61.30;;;;;;8399360;28;19916;-79
2023/08/13 11:03:16;;;;;;;;;;;23.70;61.30;;;;;;8398775;28;19930;-80
2023/08/13 11:07:17;;;;;;;;;;;23.70;61.30;;;;;;8399035;28;20380;-77
2023/08/13 11:11:18;;;;;;;;;;;23.70;62.00;;;;;;8398633;28;20267;-82
2023/08/13 11:15:19;;;;;;;;;;;23.80;62.50;;;;;;8363848;28;19913;-81
2023/08/13 11:19:19;;;;;;;;;;;23.80;60.90;;;;;;8397280;28;19920;-73
2023/08/13 11:23:21;;;;;;;;;;;23.80;61.70;;;;;;8397427;28;19913;-75
2023/08/13 11:27:25;;;;;;;;;;;23.80;61.20;;;;;;8362702;28;20210;-79
2023/08/13 11:31:26;;;;;;;;;;;23.70;61.50;;;;;;8380018;28;19909;-79
2023/08/13 11:35:27;;;;;;;;;;;23.80;61.50;;;;;;8379796;28;19963;-78
2023/08/13 11:39:28;;;;;;;;;;;23.90;62.00;;;;;;8396256;28;19913;-81
2023/08/13 11:43:29;;;;;;;;;;;24.00;61.30;;;;;;8396881;28;19921;-77
2023/08/13 11:47:30;;;;;;;;;;;24.00;61.50;;;;;;8379385;28;20074;-76
2023/08/13 11:51:30;;;;;;;;;;;24.00;61.80;;;;;;8396941;28;20305;-79
2023/08/13 11:55:32;;;;;;;;;;;24.10;62.30;;;;;;8378435;28;19920;-73
2023/08/13 11:59:32;;;;;;;;;;;24.20;61.60;;;;;;8396069;28;19912;-75
2023/08/13 12:03:34;;;;;;;;;;;24.20;61.60;;;;;;8379014;28;19955;-77
2023/08/13 12:07:41;;;;;;;;;;;24.20;61.70;;;;;;8396605;28;20011;-78
2023/08/13 12:11:41;;;;;;;;;;;24.30;62.00;;;;;;8396714;28;19994;-78
2023/08/13 12:15:42;;;;;;;;;;;24.40;61.40;;;;;;8362061;28;20015;-79
2023/08/13 12:19:44;;;;;;;;;;;24.40;61.50;;;;;;8361786;28;19929;-79
2023/08/13 12:23:45;;;;;;;;;;;24.40;61.90;;;;;;8339714;28;20015;-79
2023/08/13 12:27:46;;;;;;;;;;;24.40;62.20;;;;;;8353857;28;19920;-79
2023/08/13 12:31:47;;;;;;;;;;;24.50;61.40;;;;;;8354413;28;19972;-78
2023/08/13 12:35:47;;;;;;;;;;;24.50;61.60;;;;;;8337806;28;20286;-79
2023/08/13 12:39:49;;;;;;;;;;;24.60;61.70;;;;;;8371536;28;19916;-75
2023/08/13 12:43:50;;;;;;;;;;;24.60;61.20;;;;;;8354467;28;19923;-79
2023/08/13 12:47:50;;;;;;;;;;;24.60;61.30;;;;;;8353407;28;20378;-75
2023/08/13 12:51:51;;;;;;;;;;;24.60;61.10;;;;;;8343891;28;19942;-79
2023/08/13 12:55:52;;;;;;;;;;;24.60;61.30;;;;;;8353834;28;19977;-79
2023/08/13 12:59:53;;;;;;;;;;;24.50;61.40;;;;;;8370972;28;19908;-79
2023/08/13 13:03:54;;;;;;;;;;;24.50;60.80;;;;;;8368010;28;19909;-79
2023/08/13 13:07:55;;;;;;;;;;;24.50;60.80;;;;;;8371049;28;19923;-80
2023/08/13 13:11:55;;;;;;;;;;;24.50;61.20;;;;;;8370944;28;20362;-79
2023/08/13 13:15:56;;;;;;;;;;;24.40;61.30;;;;;;8351616;28;19913;-79
2023/08/13 13:19:57;;;;;;;;;;;24.40;60.80;;;;;;8370680;28;19923;-80
2023/08/13 13:23:57;;;;;;;;;;;24.40;61.30;;;;;;8369163;28;19923;-79
2023/08/13 13:28:00;;;;;;;;;;;24.50;61.50;;;;;;8370172;28;19909;-80
2023/08/13 13:32:00;;;;;;;;;;;24.50;62.40;;;;;;8352093;28;19917;-79
2023/08/13 13:36:01;;;;;;;;;;;24.60;62.40;;;;;;8370218;28;19920;-79
2023/08/13 13:40:03;;;;;;;;;;;24.60;61.30;;;;;;8353444;28;20374;-77
2023/08/13 13:44:03;;;;;;;;;;;24.60;60.80;;;;;;8370360;28;19917;-77
2023/08/13 13:48:04;;;;;;;;;;;24.60;62.70;;;;;;8352162;28;19912;-82
2023/08/13 13:52:05;;;;;;;;;;;24.60;62.70;;;;;;8370417;28;19920;-78
2023/08/13 13:56:05;;;;;;;;;;;24.60;63.80;;;;;;8353538;28;20415;-80
2023/08/13 14:00:07;;;;;;;;;;;24.50;62.80;;;;;;8354363;28;19912;-78
2023/08/13 14:04:07;;;;;;;;;;;24.50;63.20;;;;;;8359846;28;19928;-77
2023/08/13 14:08:08;;;;;;;;;;;24.60;61.10;;;;;;8380292;28;19912;-76
2023/08/13 14:12:08;;;;;;;;;;;24.60;62.60;;;;;;8343806;28;20011;-79
2023/08/13 14:16:09;;;;;;;;;;;24.50;62.40;;;;;;8344349;28;19935;-78
2023/08/13 14:20:09;;;;;;;;;;;24.50;64.00;;;;;;8352123;28;20473;-78
2023/08/13 14:24:10;;;;;;;;;;;24.50;63.60;;;;;;8352689;28;19968;-78
2023/08/13 14:28:11;;;;;;;;;;;24.50;63.10;;;;;;8343238;28;20394;-78
2023/08/13 14:32:12;;;;;;;;;;;24.50;63.00;;;;;;8343267;28;19927;-77
2023/08/13 14:36:12;;;;;;;;;;;24.50;63.40;;;;;;8351306;28;20389;-76
2023/08/13 14:40:14;;;;;;;;;;;24.50;63.20;;;;;;8350558;28;20362;-81
2023/08/13 14:44:15;;;;;;;;;;;24.50;63.00;;;;;;8310808;28;19939;-78
2023/08/13 14:48:15;;;;;;;;;;;24.50;62.40;;;;;;8343031;28;20378;-78
2023/08/13 14:52:16;;;;;;;;;;;24.60;62.40;;;;;;8350860;28;20285;-78
2023/08/13 14:56:16;;;;;;;;;;;24.60;62.30;;;;;;8344371;28;19923;-77
2023/08/13 15:00:18;;;;;;;;;;;24.50;62.60;;;;;;8343356;28;19924;-79
2023/08/13 15:04:18;;;;;;;;;;;24.50;62.30;;;;;;8343538;28;19909;-79
2023/08/13 15:08:19;;;;;;;;;;;24.40;62.20;;;;;;8341894;28;19974;-78
2023/08/13 15:12:20;;;;;;;;;;;24.40;62.10;;;;;;8309030;28;19936;-78
2023/08/13 15:16:21;;;;;;;;;;;24.30;62.40;;;;;;8311997;28;19917;-77
2023/08/13 15:20:21;;;;;;;;;;;24.30;62.30;;;;;;8299173;28;19922;-78
2023/08/13 15:24:22;;;;;;;;;;;24.30;62.70;;;;;;8309223;28;19909;-77
2023/08/13 15:28:23;;;;;;;;;;;24.30;63.20;;;;;;8274262;28;20281;-77
2023/08/13 15:32:23;;;;;;;;;;;24.30;63.00;;;;;;8306755;28;20340;-77
2023/08/13 15:36:27;;;;;;;;;;;24.30;64.00;;;;;;8297847;28;19917;-78
2023/08/13 15:40:27;;;;;;;;;;;24.30;64.30;;;;;;8307416;28;19917;-75
2023/08/13 15:44:28;;;;;;;;;;;24.30;64.20;;;;;;8304702;28;19932;-79
2023/08/13 15:48:28;;;;;;;;;;;24.30;63.60;;;;;;8312632;28;19917;-74
2023/08/13 15:52:29;;;;;;;;;;;24.30;64.10;;;;;;8305007;28;19916;-77
2023/08/13 15:56:29;;;;;;;;;;;24.30;63.70;;;;;;8305717;28;19951;-77
2023/08/13 16:00:30;;;;;;;;;;;24.30;64.10;;;;;;8306785;28;20240;-77
2023/08/13 16:04:30;;;;;;;;;;;24.30;64.40;;;;;;8297204;28;19918;-77
2023/08/13 16:08:31;;;;;;;;;;;24.20;64.40;;;;;;8304411;28;19921;-75
2023/08/13 16:12:32;;;;;;;;;;;24.20;64.10;;;;;;8328121;28;19929;-76
2023/08/13 16:16:32;;;;;;;;;;;24.10;64.20;;;;;;8339530;28;19921;-78
2023/08/13 16:20:33;;;;;;;;;;;24.20;64.20;;;;;;8345249;28;19917;-78
2023/08/13 16:24:33;;;;;;;;;;;24.20;63.90;;;;;;8346406;28;19924;-78
2023/08/13 16:28:34;;;;;;;;;;;24.20;64.20;;;;;;8338493;28;19928;-77
2023/08/13 16:32:35;;;;;;;;;;;24.20;64.80;;;;;;8337994;28;19962;-76
2023/08/13 16:36:37;;;;;;;;;;;24.30;64.90;;;;;;8320399;28;19921;-74
2023/08/13 16:40:38;;;;;;;;;;;24.30;64.00;;;;;;8338091;28;19917;-77
2023/08/13 16:44:38;;;;;;;;;;;24.30;64.30;;;;;;8340655;28;19963;-75
2023/08/13 16:48:39;;;;;;;;;;;24.30;64.30;;;;;;8341391;28;19913;-75
2023/08/13 16:52:40;;;;;;;;;;;24.30;64.00;;;;;;8342175;28;19921;-77
2023/08/13 16:56:40;;;;;;;;;;;24.30;63.90;;;;;;8333368;28;20333;-77
2023/08/13 17:00:41;;;;;;;;;;;24.30;63.90;;;;;;8343107;28;19959;-73
2023/08/13 17:04:41;;;;;;;;;;;24.30;63.70;;;;;;8344286;28;20756;-75
2023/08/13 17:08:42;;;;;;;;;;;24.30;63.90;;;;;;8343662;28;19921;-74
2023/08/13 17:12:42;;;;;;;;;;;24.40;63.90;;;;;;8360616;28;19985;-75
2023/08/13 17:16:43;;;;;;;;;;;24.40;63.60;;;;;;8381397;28;19972;-76
2023/08/13 17:20:43;;;;;;;;;;;24.40;63.40;;;;;;8379954;28;19928;-75
2023/08/13 17:24:44;;;;;;;;;;;24.40;63.50;;;;;;8380658;28;19921;-75
2023/08/13 17:28:44;;;;;;;;;;;24.40;63.50;;;;;;8382605;28;19932;-75
2023/08/13 17:32:45;;;;;;;;;;;24.40;63.50;;;;;;8373046;28;19972;-75
2023/08/13 17:36:45;;;;;;;;;;;24.40;63.20;;;;;;8381438;28;20023;-76
2023/08/13 17:40:46;;;;;;;;;;;24.50;63.40;;;;;;8341201;28;19917;-76
2023/08/13 17:44:46;;;;;;;;;;;24.50;63.70;;;;;;8339399;28;20385;-74
2023/08/13 17:48:47;;;;;;;;;;;24.50;63.60;;;;;;8341102;28;20317;-77
2023/08/13 17:52:47;;;;;;;;;;;24.50;63.60;;;;;;8339372;28;19933;-76
2023/08/13 17:56:48;;;;;;;;;;;24.50;63.60;;;;;;8335910;28;20393;-72
2023/08/13 18:00:49;;;;;;;;;;;24.50;63.40;;;;;;8338671;28;19928;-74
2023/08/13 18:04:49;;;;;;;;;;;24.50;63.50;;;;;;8336242;28;20395;-75
2023/08/13 18:08:50;;;;;;;;;;;24.50;63.50;;;;;;8320379;28;19909;-75
2023/08/13 18:12:50;;;;;;;;;;;24.50;63.60;;;;;;8364554;28;19933;-74
2023/08/13 18:16:51;;;;;;;;;;;24.50;63.70;;;;;;8371227;28;19932;-75
2023/08/13 18:20:52;;;;;;;;;;;24.50;63.80;;;;;;8368594;28;19916;-75
2023/08/13 18:24:54;;;;;;;;;;;24.50;63.80;;;;;;8374854;28;20285;-75
2023/08/13 18:28:56;;;;;;;;;;;24.50;63.90;;;;;;8361061;28;19913;-76
2023/08/13 18:32:56;;;;;;;;;;;24.50;64.10;;;;;;8353983;28;19920;-78
2023/08/13 18:36:57;;;;;;;;;;;24.50;64.20;;;;;;8361754;28;19964;-77
2023/08/13 18:40:57;;;;;;;;;;;24.40;64.20;;;;;;8361839;28;20314;-76
2023/08/13 18:44:58;;;;;;;;;;;24.40;64.80;;;;;;8361443;28;19912;-76
2023/08/13 18:48:58;;;;;;;;;;;24.50;65.00;;;;;;8347118;28;19934;-76
2023/08/13 18:52:59;;;;;;;;;;;24.50;64.70;;;;;;8367622;28;19908;-77
2023/08/13 18:57:00;;;;;;;;;;;24.50;65.20;;;;;;8375948;28;19916;-77
2023/08/13 19:01:00;;;;;;;;;;;24.40;65.20;;;;;;8382670;28;19919;-77
2023/08/13 19:05:01;;;;;;;;;;;24.40;65.10;;;;;;8365750;28;19916;-78
2023/08/13 19:09:01;;;;;;;;;;;24.40;65.10;;;;;;8399942;28;20015;-75
2023/08/13 19:13:02;;;;;;;;;;;24.40;65.00;;;;;;8399992;28;19925;-79
2023/08/13 19:17:03;;;;;;;;;;;24.40;64.80;;;;;;8382391;28;19917;-76
2023/08/13 19:21:03;;;;;;;;;;;24.40;64.80;;;;;;8366683;28;19925;-76
2023/08/13 19:25:04;;;;;;;;;;;24.40;64.80;;;;;;8362573;28;19916;-77
2023/08/13 19:29:05;;;;;;;;;;;24.40;64.30;;;;;;8381508;28;20277;-78
2023/08/13 19:33:05;;;;;;;;;;;24.50;64.20;;;;;;8393086;28;20358;-77
2023/08/13 19:37:06;;;;;;;;;;;24.40;64.10;;;;;;8362565;28;19923;-77
2023/08/13 19:41:06;;;;;;;;;;;24.40;64.60;;;;;;8345085;28;19913;-77
2023/08/13 19:45:07;;;;;;;;;;;24.30;64.80;;;;;;8345009;28;19913;-77
2023/08/13 19:49:07;;;;;;;;;;;24.30;64.60;;;;;;8344904;28;19913;-77
2023/08/13 19:53:08;;;;;;;;;;;24.20;64.70;;;;;;8345803;28;19947;-77
2023/08/13 19:57:09;;;;;;;;;;;24.20;64.60;;;;;;8368532;28;19920;-77
2023/08/13 20:01:09;;;;;;;;;;;24.20;64.90;;;;;;8361048;28;19920;-77
2023/08/13 20:05:10;;;;;;;;;;;24.10;64.90;;;;;;8396491;28;20271;-77
2023/08/13 20:09:10;;;;;;;;;;;24.10;64.90;;;;;;8378167;28;19915;-77
2023/08/13 20:13:11;;;;;;;;;;;24.00;65.00;;;;;;8396199;28;19924;-76
2023/08/13 20:17:11;;;;;;;;;;;24.00;64.70;;;;;;8377930;28;19917;-77
2023/08/13 20:21:12;;;;;;;;;;;24.00;64.60;;;;;;8377808;28;20124;-77
2023/08/13 20:25:12;;;;;;;;;;;24.00;64.60;;;;;;8378166;28;19957;-77
2023/08/13 20:29:13;;;;;;;;;;;24.00;64.50;;;;;;8377411;28;19908;-77
2023/08/13 20:33:14;;;;;;;;;;;24.00;64.50;;;;;;8360856;28;19913;-77
2023/08/13 20:37:14;;;;;;;;;;;24.00;64.30;;;;;;8377566;28;19956;-77
2023/08/13 20:41:15;;;;;;;;;;;23.90;64.30;;;;;;8377330;28;19916;-77
2023/08/13 20:45:15;;;;;;;;;;;23.90;64.20;;;;;;8361142;28;19912;-77
2023/08/13 20:49:25;;;;;;;;;;;23.90;64.40;;;;;;8395120;28;19920;-77
2023/08/13 20:53:25;;;;;;;;;;;23.90;64.20;;;;;;8394861;28;20120;-77
2023/08/13 20:57:26;;;;;;;;;;;23.90;64.20;;;;;;8376617;28;20023;-77
2023/08/13 21:01:26;;;;;;;;;;;23.90;64.20;;;;;;8376995;28;19912;-76
2023/08/13 21:05:27;;;;;;;;;;;23.90;64.00;;;;;;8360004;28;19913;-77
2023/08/13 21:09:28;;;;;;;;;;;23.90;64.10;;;;;;8343753;28;19963;-77
2023/08/13 21:13:28;;;;;;;;;;;23.80;63.90;;;;;;8359929;28;19928;-77
2023/08/13 21:17:29;;;;;;;;;;;23.80;64.00;;;;;;8343320;28;19924;-77
2023/08/13 21:21:29;;;;;;;;;;;23.80;64.00;;;;;;8361000;28;20349;-77
2023/08/13 21:25:30;;;;;;;;;;;23.80;64.00;;;;;;8360444;28;20330;-77
2023/08/13 21:29:30;;;;;;;;;;;23.80;64.30;;;;;;8359235;28;19916;-77
2023/08/13 21:33:31;;;;;;;;;;;23.80;64.20;;;;;;8359440;28;19913;-76
2023/08/13 21:37:32;;;;;;;;;;;23.80;64.10;;;;;;8360473;28;20377;-77
2023/08/13 21:41:32;;;;;;;;;;;23.80;64.10;;;;;;8360663;28;20022;-76
2023/08/13 21:45:33;;;;;;;;;;;23.80;63.90;;;;;;8360585;28;19920;-76
2023/08/13 21:49:33;;;;;;;;;;;23.80;64.10;;;;;;8342693;28;19916;-77
2023/08/13 21:53:34;;;;;;;;;;;23.80;64.00;;;;;;8342529;28;20176;-77
2023/08/13 21:57:34;;;;;;;;;;;23.80;64.00;;;;;;8342174;28;19924;-77
2023/08/13 22:01:35;;;;;;;;;;;23.80;64.00;;;;;;8360728;28;19913;-77
2023/08/13 22:05:42;;;;;;;;;;;23.80;63.80;;;;;;8342309;28;19963;-77
2023/08/13 22:09:42;;;;;;;;;;;23.80;64.00;;;;;;8359035;28;19954;-76
2023/08/13 22:13:43;;;;;;;;;;;23.80;63.90;;;;;;8358955;28;20275;-77
2023/08/13 22:17:43;;;;;;;;;;;23.80;63.80;;;;;;8342116;28;20290;-77
2023/08/13 22:21:44;;;;;;;;;;;23.80;63.90;;;;;;8359345;28;19917;-77
2023/08/13 22:25:44;;;;;;;;;;;23.80;63.80;;;;;;8365994;28;19943;-77
2023/08/13 22:29:46;;;;;;;;;;;23.80;63.60;;;;;;8365074;28;19938;-77
2023/08/13 22:33:47;;;;;;;;;;;23.70;63.70;;;;;;8348917;28;19913;-77
2023/08/13 22:37:48;;;;;;;;;;;23.70;63.70;;;;;;8348374;28;19912;-77
2023/08/13 22:41:48;;;;;;;;;;;23.70;63.70;;;;;;8366132;28;19920;-76
2023/08/13 22:45:50;;;;;;;;;;;23.80;63.70;;;;;;8331777;28;20477;-76
2023/08/13 22:49:50;;;;;;;;;;;23.70;63.60;;;;;;8365881;28;20385;-77
2023/08/13 22:53:52;;;;;;;;;;;23.70;63.60;;;;;;8365620;28;20285;-77
2023/08/13 22:57:53;;;;;;;;;;;23.70;63.70;;;;;;8347452;28;19912;-77
2023/08/13 23:01:54;;;;;;;;;;;23.70;63.60;;;;;;8364209;28;20367;-76
2023/08/13 23:05:54;;;;;;;;;;;23.70;63.70;;;;;;8364124;28;20306;-77
2023/08/13 23:09:55;;;;;;;;;;;23.70;63.60;;;;;;8367323;28;20069;-76
2023/08/13 23:13:55;;;;;;;;;;;23.70;63.60;;;;;;8380608;28;19909;-77
2023/08/13 23:17:56;;;;;;;;;;;23.70;63.40;;;;;;8380294;28;19917;-76
2023/08/13 23:21:57;;;;;;;;;;;23.70;63.50;;;;;;8380001;28;19920;-77